55.8°F
Current conditions from King Hill
Updated every 5 minutes
 
  Wednesday April 25, 2018

Observations for Westford

Westford

44° 37' 39"N, 73° 02' 29"W, Elevation 850 ft.
Eastern Time

Hourly observations for the last 72 hours

Date Time Temperature (°F) Humi-
dity

(%)
Wind
(mph)
Pressure Rain (in)
Air Dew 6 Hour 1 Hr 3 Hr 6 Hr Day
Alt
(in)
Sea
Level

(mb)
Max Min
25 12:00 55.2 47.1 74 SSE 2 G 9 29.91 1012.8 0.02
25 11:00 55.9 46.6 71 SSW 1 G 12 29.93 1013.7 0.01 0.02
25 10:00 50.4 46.1 85 E 2 G 6 29.96 1014.5 0.02
25 09:00 49.5 45.8 87 E 1 G 5 29.98 1015.4 0.01 0.02
25 08:00 50.3 44.0 54.9 48.9 79 S 0 G 6 30.01 1016.2 0.01 0.01 0.01 0.01
25 07:00 48.9 43.0 80 S 0 G 5 30.01 1016.3 0.00
25 06:00 50.2 42.6 75 SSW 2 G 7 30.01 1016.3 0.00
25 05:00 52.4 41.8 67 SSW 2 G 25 30.00 1015.9 0.00
25 04:00 53.0 39.1 59 S 1 G 12 30.01 1016.2 0.00
25 03:00 53.6 37.8 55 SSW 6 G 16 30.02 1016.6 0.00
25 02:00 54.9 36.1 61.2 54.8 49 SSW 6 G 21 30.02 1016.8 0.00
25 01:00 55.5 34.5 45 SSW 6 G 19 30.04 1017.4 0.00
25 00:00 57.3 32.6 39 SSW 7 G 20 30.06 1017.8 0.00
24 23:00 58.0 26.7 30 SSW 2 G 10 30.06 1017.9 0.00
24 22:00 57.7 24.8 28 SSW 0 G 8 30.06 1017.9 0.00
24 21:00 59.7 22.8 24 SSW 0 G 7 30.06 1017.9 0.00
24 20:00 61.2 21.0 70.6 61.2 21 S 1 G 7 30.06 1017.8 0.00
24 19:00 63.8 23.1 21 SSW 2 G 8 30.06 1018.0 0.00
24 18:00 66.1 28.3 24 S 1 G 10 30.08 1018.6 0.00
24 17:00 67.8 27.6 22 SSW 6 G 16 30.09 1018.9 0.00
24 16:00 70.1 30.6 23 S 4 G 11 30.10 1019.3 0.00
24 15:00 69.4 28.9 22 SSW 9 G 14 30.12 1020.0 0.00
24 14:00 69.4 31.1 69.9 52.9 24 SSW 5 G 13 30.14 1020.7 0.00
24 13:00 67.4 33.2 28 S 4 G 12 30.16 1021.2 0.00
24 12:00 65.4 34.0 31 SW 2 G 10 30.19 1022.5 0.00
24 11:00 63.5 33.1 32 S 7 G 15 30.22 1023.4 0.00
24 10:00 60.2 31.7 34 SSW 7 G 19 30.24 1024.0 0.00
24 09:00 56.6 29.3 35 SSW 8 G 19 30.24 1024.2 0.00
24 08:00 52.9 29.2 52.9 47.4 40 S 7 G 15 30.25 1024.5 0.00
24 07:00 47.8 26.4 43 SSW 6 G 10 30.24 1024.1 0.00
24 06:00 47.8 25.2 41 SSW 3 G 12 30.24 1023.9 0.00
24 05:00 48.2 25.0 40 SSW 6 G 11 30.23 1023.8 0.00
24 04:00 48.4 25.2 40 S 5 G 13 30.24 1024.0 0.00
24 03:00 47.8 24.0 39 SSW 3 G 12 30.24 1024.2 0.00
24 02:00 48.0 18.8 53.9 44.7 31 SSW 3 G 9 30.25 1024.3 0.00
24 01:00 45.8 17.6 32 S 0 G 4 30.26 1024.7 0.00
24 00:00 46.0 16.3 30 Calm 30.26 1024.8 0.00
23 23:00 45.6 17.4 32 Calm 30.26 1024.8 0.00
23 22:00 48.2 19.7 32 SSW 0 G 1 30.27 1025.1 0.00
23 21:00 50.4 22.4 33 Calm 30.27 1025.2 0.00
23 20:00 53.9 15.9 65.4 53.9 22 Calm 30.27 1025.0 0.00
23 19:00 62.3 14.0 15 SSW 1 G 9 30.27 1025.3 0.00
23 18:00 64.3 17.1 16 S 0 G 9 30.29 1025.6 0.00
23 17:00 64.7 16.0 15 SW 1 G 7 30.30 1026.0 0.00
23 16:00 64.0 19.6 18 S 0 G 11 30.32 1026.8 0.00
23 15:00 62.6 19.8 19 SSW 4 G 8 30.35 1027.9 0.00
23 14:00 60.2 19.0 60.7 43.6 20 W 2 G 7 30.37 1028.6 0.00
23 13:00 59.5 19.5 21 WSW 1 G 8 30.40 1029.6 0.00
23 12:00 57.7 20.2 23 SSW 0 G 4 30.43 1030.4 0.00
23 11:00 55.8 19.5 24 W 1 G 7 30.44 1031.0 0.00
23 10:00 53.5 22.0 29 SSW 1 G 8 30.45 1031.3 0.00
23 09:00 48.8 25.5 40 S 1 G 9 30.46 1031.4 0.00
23 08:00 43.6 23.1 43.6 29.6 44 S 1 G 7 30.46 1031.5 0.00
23 07:00 33.3 21.3 61 S 0 G 1 30.44 1030.8 0.00
23 06:00 30.6 20.9 67 Calm 30.41 1029.8 0.00
23 05:00 30.8 21.5 68 Calm 30.39 1029.2 0.00
23 04:00 29.9 22.0 72 Calm 30.39 1029.1 0.00
23 03:00 30.3 21.7 70 Calm 30.38 1028.9 0.00
23 02:00 33.7 22.4 44.0 32.4 63 Calm 30.38 1028.9 0.00
23 01:00 33.5 19.9 57 Calm 30.38 1028.7 0.00
23 00:00 36.1 18.8 49 Calm 30.37 1028.4 0.00
22 23:00 37.2 19.8 49 Calm 30.36 1028.3 0.00
22 22:00 38.4 18.4 44 Calm 30.37 1028.3 0.00
22 21:00 40.0 24.2 53 Calm 30.36 1028.0 0.00
22 20:00 44.0 24.0 55.7 44.0 45 Calm 30.34 1027.4 0.00
22 19:00 52.6 22.0 30 N 0 G 5 30.32 1026.8 0.00
22 18:00 53.6 22.1 29 NNE 1 G 13 30.32 1026.9 0.00
22 17:00 55.1 25.0 31 NNW 1 G 13 30.33 1027.1 0.00
22 16:00 54.7 23.1 29 NE 1 G 14 30.34 1027.3 0.00
22 15:00 52.5 22.7 31 N 3 G 16 30.35 1027.7 0.00
22 14:00 51.2 21.6 52.2 38.9 31 WNW 5 G 15 30.36 1028.2 0.00
22 13:00 51.0 24.3 35 N 2 G 10 30.37 1028.4 0.00

Data generated by WxSolution Version 1.9.0.6, Build 2017.01.14.


 
 
Current Radar Loop:

Copyright © WestfordWeather.net 2007-2018. All rights reserved.